createdAt,value
2022-08-17T00:09:27.844Z,18.65
2022-08-17T00:19:30.334Z,18.55
2022-08-17T00:29:32.384Z,16.98
2022-08-17T00:39:34.568Z,18.25
2022-08-17T00:49:36.657Z,19.23
2022-08-17T01:00:02.330Z,17.60
2022-08-17T01:10:08.966Z,17.38
2022-08-17T01:20:43.061Z,18.50
2022-08-17T01:30:58.508Z,17.48
2022-08-17T01:41:05.882Z,19.08
2022-08-17T01:51:08.535Z,17.40
2022-08-17T02:01:12.448Z,18.45
2022-08-17T02:11:22.275Z,17.20
2022-08-17T02:21:29.139Z,17.77
2022-08-17T02:31:32.013Z,17.25
2022-08-17T02:41:34.797Z,23.10
2022-08-17T02:51:39.266Z,16.77
2022-08-17T03:01:43.475Z,16.55
2022-08-17T03:11:45.639Z,16.92
2022-08-17T03:21:54.835Z,20.42
2022-08-17T03:32:02.347Z,15.55
2022-08-17T03:42:32.188Z,15.88
2022-08-17T03:52:53.781Z,19.13
2022-08-17T04:02:59.187Z,20.35
2022-08-17T04:13:01.565Z,15.98
2022-08-17T04:23:13.045Z,16.08
2022-08-17T04:33:22.739Z,12.18
2022-08-17T04:43:28.501Z,12.13
2022-08-17T04:53:30.778Z,19.38
2022-08-17T05:03:38.725Z,13.15
2022-08-17T05:13:42.213Z,12.05
2022-08-17T05:23:45.522Z,11.60
2022-08-17T05:33:57.215Z,10.38
2022-08-17T05:44:05.486Z,12.93
2022-08-17T05:54:18.034Z,14.43
2022-08-17T06:04:38.719Z,11.40
2022-08-17T06:14:49.236Z,12.02
2022-08-17T06:24:57.375Z,9.73
2022-08-17T06:35:08.468Z,15.13
2022-08-17T06:45:37.714Z,9.48
2022-08-17T06:55:54.790Z,8.13
2022-08-17T07:06:14.363Z,8.65
2022-08-17T07:16:29.321Z,11.25
2022-08-17T07:26:32.800Z,8.55
2022-08-17T07:36:38.218Z,32.50
2022-08-17T07:47:12.247Z,10.35
2022-08-17T07:57:14.331Z,10.30
2022-08-17T08:07:16.489Z,14.20
2022-08-17T08:17:24.306Z,10.85
2022-08-17T08:27:48.962Z,9.98
2022-08-17T08:38:28.379Z,7.22
2022-08-17T08:49:09.961Z,9.18
2022-08-17T08:59:23.304Z,8.73
2022-08-17T09:09:39.948Z,11.38
2022-08-17T09:19:51.868Z,7.32
2022-08-17T09:30:02.792Z,8.10
2022-08-17T09:40:42.944Z,10.57
2022-08-17T09:51:04.034Z,11.35
2022-08-17T10:01:35.932Z,9.32
2022-08-17T10:12:17.633Z,9.88
2022-08-17T10:22:47.834Z,9.50
2022-08-17T10:32:59.392Z,9.88
2022-08-17T10:43:39.098Z,7.70
2022-08-17T10:53:43.040Z,7.05
2022-08-17T11:03:54.975Z,11.23
2022-08-17T11:14:10.149Z,7.38
2022-08-17T11:24:21.772Z,7.70
2022-08-17T11:34:28.101Z,10.02
2022-08-17T11:44:54.423Z,12.52
2022-08-17T11:55:24.056Z,9.93
2022-08-17T12:05:30.355Z,8.23
2022-08-17T12:15:36.788Z,11.15
2022-08-17T12:25:51.059Z,10.52
2022-08-17T12:35:59.745Z,6.43
2022-08-17T12:46:15.253Z,7.88
2022-08-17T12:56:20.885Z,10.07
2022-08-17T13:06:30.254Z,7.70
2022-08-17T13:16:36.631Z,9.32
2022-08-17T13:26:51.586Z,8.95
2022-08-17T13:37:26.381Z,9.27
2022-08-17T13:47:33.458Z,9.27
2022-08-17T13:57:39.135Z,7.05
2022-08-17T14:07:46.760Z,9.30
2022-08-17T14:17:53.895Z,10.65
2022-08-17T14:27:59.705Z,8.93
2022-08-17T14:38:06.202Z,8.35
2022-08-17T14:48:09.683Z,11.90
2022-08-17T14:58:15.016Z,11.63
2022-08-17T15:08:24.624Z,8.20
2022-08-17T15:18:30.468Z,12.30
2022-08-17T15:28:37.855Z,7.75
2022-08-17T15:38:44.878Z,10.57
2022-08-17T15:48:50.162Z,11.45
2022-08-17T15:58:55.632Z,10.25
2022-08-17T16:08:59.590Z,8.95
2022-08-17T16:19:01.848Z,13.95
2022-08-17T16:29:06.802Z,8.82
2022-08-17T16:39:11.261Z,8.00
2022-08-17T16:49:35.896Z,11.65
2022-08-17T16:59:43.798Z,11.48
2022-08-17T17:09:55.678Z,10.75
2022-08-17T17:20:27.526Z,11.15
2022-08-17T17:30:38.633Z,14.57
2022-08-17T17:40:51.587Z,12.90
2022-08-17T17:51:01.729Z,15.15
2022-08-17T18:01:46.023Z,12.38
2022-08-17T18:12:07.059Z,15.25
2022-08-17T18:22:14.891Z,16.20
2022-08-17T18:32:42.271Z,17.63
2022-08-17T18:43:06.801Z,18.15
2022-08-17T18:53:26.613Z,20.65
2022-08-17T19:03:42.474Z,15.10
2022-08-17T19:14:03.820Z,15.70
2022-08-17T19:24:19.876Z,16.92
2022-08-17T19:34:33.507Z,19.20
2022-08-17T19:44:42.831Z,15.52
2022-08-17T19:55:00.143Z,16.02
2022-08-17T20:05:17.695Z,19.67
2022-08-17T20:15:26.177Z,15.55
2022-08-17T20:25:38.605Z,19.52
2022-08-17T20:36:01.493Z,20.92
2022-08-17T20:46:51.601Z,17.48
2022-08-17T20:56:57.536Z,17.15
2022-08-17T21:07:29.322Z,17.15
2022-08-17T21:17:42.486Z,12.73
2022-08-17T21:28:07.422Z,15.90
2022-08-17T21:38:19.581Z,15.05
2022-08-17T21:48:27.514Z,16.90
2022-08-17T21:58:38.435Z,15.93
2022-08-17T22:09:26.359Z,18.08
2022-08-17T22:19:35.164Z,18.48
2022-08-17T22:29:54.350Z,22.90
2022-08-17T22:39:59.573Z,16.23
2022-08-17T22:50:05.832Z,16.52
2022-08-17T23:00:33.655Z,16.02
2022-08-17T23:10:37.641Z,22.40
2022-08-17T23:20:42.429Z,18.60
2022-08-17T23:30:48.546Z,17.90
2022-08-17T23:40:51.984Z,16.63
2022-08-17T23:51:04.013Z,19.85
